Time;durP1;ratioP1;P1;durP2;ratioP2;P2;SDS_P1;SDS_P2;PMS_P1;PMS_P2;Temp;Humidity;BMP_temperature;BMP_pressure;BME280_temperature;BME280_humidity;BME280_pressure;Samples;Min_cycle;Max_cycle;Signal;HPM_P1;HPM_P2
2022/01/19 00:00:46;;;;;;;7.33;5.13;;;4.60;99.90;;;;;;5015266;28;20587;-59
2022/01/19 00:03:12;;;;;;;9.27;5.70;;;4.60;99.90;;;;;;5015343;28;20226;-59
2022/01/19 00:05:39;;;;;;;10.07;5.30;;;4.60;99.90;;;;;;5015023;28;20238;-59
2022/01/19 00:08:06;;;;;;;7.03;5.70;;;4.50;99.90;;;;;;5014809;28;20214;-59
2022/01/19 00:10:35;;;;;;;8.67;5.20;;;4.50;99.90;;;;;;5015108;28;20318;-59
2022/01/19 00:13:02;;;;;;;7.77;5.10;;;4.50;99.90;;;;;;5015306;28;20219;-60
2022/01/19 00:15:29;;;;;;;8.10;5.30;;;4.40;99.90;;;;;;5015112;28;20203;-59
2022/01/19 00:17:58;;;;;;;6.27;5.17;;;4.30;99.90;;;;;;5014819;28;20217;-59
2022/01/19 00:20:27;;;;;;;6.33;4.83;;;4.30;99.90;;;;;;5014942;28;20203;-59
2022/01/19 00:22:54;;;;;;;7.23;4.97;;;4.30;99.90;;;;;;5014878;28;20284;-59
2022/01/19 00:25:21;;;;;;;7.90;5.13;;;4.20;99.90;;;;;;5014956;28;20241;-59
2022/01/19 00:27:50;;;;;;;7.73;5.50;;;4.20;99.90;;;;;;5014688;28;20594;-58
2022/01/19 00:30:17;;;;;;;7.97;5.03;;;4.20;99.90;;;;;;5014952;28;20258;-58
2022/01/19 00:32:44;;;;;;;8.67;5.43;;;4.20;99.90;;;;;;5014453;28;20253;-58
2022/01/19 00:35:12;;;;;;;7.20;5.43;;;4.20;99.90;;;;;;5014553;28;20214;-59
2022/01/19 00:37:40;;;;;;;9.07;5.03;;;4.20;99.90;;;;;;5014522;28;20211;-58
2022/01/19 00:40:10;;;;;;;8.57;5.20;;;4.10;99.90;;;;;;5014635;28;20253;-59
2022/01/19 00:42:37;;;;;;;12.30;6.73;;;4.10;99.90;;;;;;5014379;28;20227;-59
2022/01/19 00:45:07;;;;;;;7.40;5.37;;;4.00;99.90;;;;;;5014631;28;20211;-59
2022/01/19 00:47:34;;;;;;;6.97;4.63;;;4.00;99.90;;;;;;5014223;28;20458;-59
2022/01/19 00:50:00;;;;;;;9.63;5.27;;;3.90;99.90;;;;;;5014498;28;20215;-59
2022/01/19 00:52:27;;;;;;;6.50;4.90;;;3.70;99.90;;;;;;5014495;28;20219;-59
2022/01/19 00:54:54;;;;;;;8.17;5.47;;;3.70;99.90;;;;;;5014637;28;20246;-59
2022/01/19 00:57:21;;;;;;;8.60;5.00;;;3.60;99.90;;;;;;5014375;28;20206;-61
2022/01/19 00:59:47;;;;;;;7.67;5.10;;;3.60;99.90;;;;;;5014382;28;20206;-58
2022/01/19 01:02:15;;;;;;;6.97;5.40;;;3.50;99.90;;;;;;5014069;28;20230;-59
2022/01/19 01:04:42;;;;;;;7.07;4.87;;;3.50;99.90;;;;;;5014241;28;20207;-59
2022/01/19 01:07:09;;;;;;;9.47;5.00;;;3.50;99.90;;;;;;5014164;28;20211;-59
2022/01/19 01:09:35;;;;;;;6.77;4.87;;;3.40;99.90;;;;;;5014043;28;20207;-59
2022/01/19 01:12:10;;;;;;;8.23;5.20;;;3.40;99.90;;;;;;5013920;28;20715;-59
2022/01/19 01:20:16;;;;;;;11.17;5.93;;;3.20;99.90;;;;;;4989472;28;20209;-59
2022/01/19 01:22:43;;;;;;;10.60;5.63;;;3.20;99.90;;;;;;5013376;28;20332;-59
2022/01/19 01:25:10;;;;;;;9.00;5.57;;;3.20;99.90;;;;;;5013762;28;20679;-59
2022/01/19 01:27:38;;;;;;;8.13;5.67;;;3.10;99.90;;;;;;5013999;28;20211;-59
2022/01/19 01:30:05;;;;;;;6.70;5.60;;;3.00;99.90;;;;;;5013717;28;20206;-59
2022/01/19 01:32:33;;;;;;;7.23;5.00;;;3.00;99.90;;;;;;5013601;28;20235;-59
2022/01/19 01:35:00;;;;;;;10.83;6.63;;;2.90;99.90;;;;;;5013561;28;20214;-59
2022/01/19 01:37:27;;;;;;;8.40;5.80;;;2.80;99.90;;;;;;5013145;28;20667;-59
2022/01/19 01:39:54;;;;;;;9.30;6.37;;;2.70;99.90;;;;;;5013471;28;20203;-59
2022/01/19 01:42:23;;;;;;;9.07;6.43;;;2.60;99.90;;;;;;5013358;28;20234;-59
2022/01/19 01:44:52;;;;;;;11.53;6.17;;;2.50;99.90;;;;;;5013430;28;20215;-59
2022/01/19 01:47:20;;;;;;;9.33;6.53;;;2.40;99.90;;;;;;5013404;28;20266;-58
2022/01/19 01:53:26;;;;;;;11.50;6.87;;;2.30;99.90;;;;;;5013082;28;20218;-59
2022/01/19 01:55:23;;;;;;;8.97;5.57;;;2.10;99.90;;;;;;5013393;28;20214;-59
2022/01/19 01:57:50;;;;;;;10.63;6.50;;;2.10;99.90;;;;;;5013574;28;20261;-60
2022/01/19 02:00:20;;;;;;;8.97;6.00;;;2.10;99.90;;;;;;5013359;28;20211;-59
2022/01/19 02:02:48;;;;;;;9.50;6.67;;;2.10;99.90;;;;;;5012872;28;20230;-59
2022/01/19 02:05:17;;;;;;;10.80;6.50;;;2.10;99.90;;;;;;5013381;28;20593;-59
2022/01/19 02:07:49;;;;;;;8.53;5.97;;;2.10;99.90;;;;;;5013600;28;20222;-60
2022/01/19 02:10:31;;;;;;;10.33;6.80;;;2.10;99.90;;;;;;5013442;28;20686;-59
2022/01/19 02:15:54;;;;;;;9.13;6.67;;;2.00;99.90;;;;;;5012966;28;20210;-59
2022/01/19 02:23:54;;;;;;;10.53;6.80;;;1.80;99.90;;;;;;5012908;28;20250;-59
2022/01/19 02:26:27;;;;;;;9.67;6.50;;;1.80;99.90;;;;;;5012861;28;20210;-59
2022/01/19 02:29:02;;;;;;;6.97;5.70;;;1.70;99.90;;;;;;5012688;28;20206;-58
2022/01/19 02:42:37;;;;;;;8.87;6.77;;;1.50;99.90;;;;;;5012891;28;20246;-58
2022/01/19 02:50:34;;;;;;;11.03;7.17;;;1.40;99.90;;;;;;5012446;28;20674;-59
2022/01/19 02:53:03;;;;;;;8.27;6.43;;;1.40;99.90;;;;;;5012305;28;20223;-60
2022/01/19 02:55:31;;;;;;;13.50;7.27;;;1.40;99.90;;;;;;5012743;28;20402;-59
2022/01/19 02:57:58;;;;;;;10.17;7.50;;;1.40;99.90;;;;;;5012269;28;20207;-59
2022/01/19 03:08:46;;;;;;;11.20;7.10;;;1.40;99.90;;;;;;5012008;28;20264;-58
2022/01/19 03:11:15;;;;;;;10.50;6.97;;;1.50;99.90;;;;;;5012083;28;20292;-58
2022/01/19 03:13:43;;;;;;;10.20;6.90;;;1.40;99.90;;;;;;5012101;28;20203;-59
2022/01/19 03:16:10;;;;;;;10.93;6.57;;;1.40;99.90;;;;;;5012058;28;20219;-59
2022/01/19 03:18:36;;;;;;;10.00;7.00;;;1.20;99.90;;;;;;5012029;28;20626;-58
2022/01/19 03:21:04;;;;;;;11.27;7.03;;;1.10;99.90;;;;;;5012085;28;20233;-59
2022/01/19 03:23:31;;;;;;;8.27;6.07;;;1.00;99.90;;;;;;5012048;28;20238;-59
2022/01/19 03:26:04;;;;;;;9.07;6.17;;;1.00;99.90;;;;;;5012012;28;20285;-58
2022/01/19 03:28:31;;;;;;;10.93;6.80;;;1.00;99.90;;;;;;5012028;28;20254;-59
2022/01/19 03:30:58;;;;;;;10.70;7.03;;;0.90;99.90;;;;;;5012099;28;20257;-58
2022/01/19 03:33:24;;;;;;;12.63;7.20;;;0.90;99.90;;;;;;5011949;28;20207;-59
2022/01/19 03:35:51;;;;;;;8.97;6.57;;;0.90;99.90;;;;;;5011988;28;20210;-59
2022/01/19 03:38:18;;;;;;;10.80;6.60;;;0.90;99.90;;;;;;5011532;28;20293;-59
2022/01/19 03:40:45;;;;;;;8.93;6.87;;;1.00;99.90;;;;;;5012007;28;20207;-59
2022/01/19 03:43:13;;;;;;;10.50;7.20;;;1.00;99.90;;;;;;5011977;28;20234;-59
2022/01/19 03:45:40;;;;;;;12.27;7.90;;;1.00;99.90;;;;;;5015213;28;20211;-58
2022/01/19 03:48:18;;;;;;;12.57;7.30;;;1.00;99.90;;;;;;5015392;28;20211;-60
2022/01/19 03:50:45;;;;;;;11.00;7.23;;;0.80;99.90;;;;;;5015252;28;20207;-59
2022/01/19 03:53:12;;;;;;;12.10;6.73;;;0.60;99.90;;;;;;5015802;28;20206;-59
2022/01/19 03:55:38;;;;;;;10.80;6.97;;;0.50;99.90;;;;;;5015510;28;20210;-59
2022/01/19 03:58:05;;;;;;;10.00;7.17;;;0.50;99.90;;;;;;5015168;28;20210;-59
2022/01/19 04:00:35;;;;;;;11.90;6.93;;;0.30;99.90;;;;;;5015282;28;20211;-59
2022/01/19 04:03:05;;;;;;;17.10;7.23;;;0.30;99.90;;;;;;5015196;28;20227;-59
2022/01/19 04:05:41;;;;;;;13.47;8.00;;;0.30;99.90;;;;;;5015128;28;20293;-59
2022/01/19 04:08:09;;;;;;;13.43;7.63;;;0.50;99.90;;;;;;5015042;28;20206;-59
2022/01/19 04:10:35;;;;;;;14.93;8.93;;;0.50;99.90;;;;;;5015271;28;20210;-59
2022/01/19 04:13:11;;;;;;;14.77;8.20;;;0.40;99.90;;;;;;5015096;28;20226;-59
2022/01/19 04:15:39;;;;;;;15.10;8.07;;;0.60;99.90;;;;;;5018900;28;20214;-61
2022/01/19 04:18:06;;;;;;;16.03;8.87;;;0.80;99.90;;;;;;5023344;28;20211;-59
2022/01/19 04:20:40;;;;;;;17.90;9.60;;;1.00;99.90;;;;;;5015134;28;20272;-59
2022/01/19 04:23:07;;;;;;;13.43;9.70;;;1.20;99.90;;;;;;5015037;28;20604;-60
2022/01/19 04:25:34;;;;;;;17.47;8.63;;;1.20;99.90;;;;;;5015084;28;20294;-60
2022/01/19 04:28:07;;;;;;;17.70;9.13;;;1.30;99.90;;;;;;5014654;28;20215;-59
2022/01/19 04:30:34;;;;;;;11.70;8.60;;;1.40;99.90;;;;;;5014861;28;20293;-59
2022/01/19 04:33:07;;;;;;;14.23;8.57;;;1.30;99.90;;;;;;5069950;23;20241;-57
2022/01/19 04:35:44;;;;;;;10.83;8.50;;;1.30;99.90;;;;;;5054238;28;20214;-57
2022/01/19 05:05:54;;;;;;;13.70;8.50;;;1.10;99.90;;;;;;5041167;28;20207;-59
2022/01/19 05:08:38;;;;;;;15.10;9.03;;;1.00;99.90;;;;;;5048898;28;20247;-59
2022/01/19 05:13:52;;;;;;;14.63;7.73;;;1.00;99.90;;;;;;5048901;28;20220;-60
2022/01/19 05:16:20;;;;;;;11.83;7.07;;;1.00;99.90;;;;;;5048744;28;20240;-60
2022/01/19 05:18:47;;;;;;;27.83;13.43;;;1.00;99.90;;;;;;5048782;28;20624;-60
2022/01/19 05:21:15;;;;;;;15.73;9.10;;;1.00;99.90;;;;;;5048939;28;20293;-60
2022/01/19 05:23:42;;;;;;;13.33;8.60;;;0.90;99.90;;;;;;5048784;28;20230;-60
2022/01/19 05:26:09;;;;;;;12.97;8.60;;;0.90;99.90;;;;;;5048688;28;20218;-60
2022/01/19 05:28:37;;;;;;;12.37;8.80;;;1.00;99.90;;;;;;5048239;28;20238;-60
2022/01/19 05:31:03;;;;;;;11.50;8.20;;;1.00;99.90;;;;;;5048461;28;20275;-60
2022/01/19 05:33:30;;;;;;;13.70;8.87;;;1.00;99.90;;;;;;5048551;28;20225;-60
2022/01/19 05:35:57;;;;;;;12.50;7.43;;;1.10;99.90;;;;;;5048677;28;20201;-60
2022/01/19 05:38:25;;;;;;;12.53;7.43;;;1.00;99.90;;;;;;5048003;28;20611;-60
2022/01/19 05:40:52;;;;;;;12.57;7.00;;;1.10;99.90;;;;;;5048323;28;20209;-60
2022/01/19 05:43:18;;;;;;;12.50;7.20;;;1.00;99.90;;;;;;5048078;28;20713;-60
2022/01/19 05:45:45;;;;;;;12.13;7.40;;;1.00;99.90;;;;;;5048069;28;20267;-60
2022/01/19 05:48:12;;;;;;;13.37;7.53;;;1.20;99.90;;;;;;5047832;28;20592;-59
2022/01/19 05:50:38;;;;;;;14.13;8.27;;;1.30;99.90;;;;;;5048241;28;20201;-59
2022/01/19 05:53:05;;;;;;;17.20;9.10;;;1.50;99.90;;;;;;5047908;28;20245;-59
2022/01/19 05:55:33;;;;;;;13.83;7.27;;;1.70;99.90;;;;;;5048021;28;20205;-59
2022/01/19 05:58:00;;;;;;;12.30;7.83;;;1.70;99.90;;;;;;5047676;28;20267;-59
2022/01/19 06:00:27;;;;;;;13.53;7.27;;;1.60;99.90;;;;;;5036256;28;20202;-59
2022/01/19 06:02:53;;;;;;;13.53;8.27;;;1.60;99.90;;;;;;5034251;28;20280;-60
2022/01/19 06:05:20;;;;;;;14.00;9.13;;;1.60;99.90;;;;;;5034678;28;20210;-59
2022/01/19 06:07:48;;;;;;;15.20;8.47;;;1.60;99.90;;;;;;5034732;28;20226;-59
2022/01/19 06:12:57;;;;;;;13.50;8.10;;;1.70;99.90;;;;;;5033385;28;20218;-60
2022/01/19 06:15:24;;;;;;;15.93;8.80;;;1.70;99.90;;;;;;5034494;28;20210;-61
2022/01/19 06:17:51;;;;;;;16.93;9.60;;;1.70;99.90;;;;;;5034131;28;20205;-59
2022/01/19 06:20:18;;;;;;;12.43;8.07;;;1.70;99.90;;;;;;5034210;28;20210;-59
2022/01/19 06:22:44;;;;;;;12.67;7.93;;;1.80;99.90;;;;;;5034130;28;20234;-60
2022/01/19 06:25:11;;;;;;;16.93;9.20;;;1.90;99.90;;;;;;5034112;28;20256;-60
2022/01/19 06:27:38;;;;;;;15.60;7.90;;;2.00;99.90;;;;;;5034335;28;20281;-60
2022/01/19 06:30:07;;;;;;;13.00;7.37;;;2.10;99.90;;;;;;5033808;28;20566;-60
2022/01/19 06:32:34;;;;;;;14.80;8.67;;;2.20;99.90;;;;;;5034101;28;20288;-60
2022/01/19 06:35:01;;;;;;;14.13;8.00;;;2.40;99.90;;;;;;5034145;28;20206;-60
2022/01/19 06:37:27;;;;;;;11.50;7.70;;;2.50;99.90;;;;;;5034061;28;20206;-60
2022/01/19 06:39:54;;;;;;;16.50;10.30;;;2.60;99.90;;;;;;5034003;28;20252;-60
2022/01/19 06:42:21;;;;;;;13.63;8.63;;;2.70;99.90;;;;;;5033844;28;20226;-60
2022/01/19 06:44:47;;;;;;;12.07;8.60;;;2.80;99.90;;;;;;5033845;28;20210;-60
2022/01/19 06:47:15;;;;;;;13.80;7.90;;;2.80;99.90;;;;;;5033845;28;20211;-59
2022/01/19 06:49:42;;;;;;;15.73;10.33;;;2.80;99.90;;;;;;5033546;28;20230;-59
2022/01/19 06:52:09;;;;;;;13.37;8.60;;;2.70;99.90;;;;;;5033638;28;20241;-60
2022/01/19 06:54:35;;;;;;;14.40;9.40;;;2.60;99.90;;;;;;5033857;28;20206;-59
2022/01/19 06:57:02;;;;;;;18.37;9.93;;;2.60;99.90;;;;;;5033901;28;20206;-59
2022/01/19 06:59:29;;;;;;;16.20;9.97;;;2.60;99.90;;;;;;5033310;28;20255;-60
2022/01/19 07:01:55;;;;;;;16.03;9.83;;;2.60;99.90;;;;;;5033387;28;20744;-60
2022/01/19 07:04:23;;;;;;;15.73;9.43;;;2.50;99.90;;;;;;5033912;28;20207;-60
2022/01/19 07:06:50;;;;;;;13.33;9.57;;;2.50;99.90;;;;;;5033275;28;20213;-60
2022/01/19 07:09:17;;;;;;;19.37;10.23;;;2.50;99.90;;;;;;5033376;28;20234;-59
2022/01/19 07:11:44;;;;;;;14.13;8.90;;;2.50;99.90;;;;;;5032462;28;20202;-59
2022/01/19 07:14:12;;;;;;;16.70;9.73;;;2.60;99.90;;;;;;5033165;28;20774;-60
2022/01/19 07:16:39;;;;;;;24.00;14.63;;;2.70;99.90;;;;;;5033297;28;20217;-60
2022/01/19 07:19:06;;;;;;;20.33;13.67;;;2.90;99.90;;;;;;5032958;28;20214;-60
2022/01/19 07:21:34;;;;;;;20.10;13.03;;;3.10;99.90;;;;;;5033156;28;20245;-59
2022/01/19 07:24:01;;;;;;;15.10;10.03;;;3.20;99.90;;;;;;5033262;28;20284;-60
2022/01/19 07:26:27;;;;;;;16.17;8.93;;;3.40;99.90;;;;;;5033354;28;20215;-58
2022/01/19 07:28:54;;;;;;;13.83;8.40;;;3.40;99.90;;;;;;5032900;28;20222;-59
2022/01/19 07:31:21;;;;;;;14.40;8.27;;;3.40;99.90;;;;;;5033037;28;20260;-59
2022/01/19 07:33:47;;;;;;;12.07;8.53;;;3.40;99.90;;;;;;5032925;28;20222;-59
2022/01/19 07:36:15;;;;;;;22.20;13.70;;;3.40;99.90;;;;;;5033376;28;20264;-59
2022/01/19 07:38:43;;;;;;;16.93;11.70;;;3.30;99.90;;;;;;5033184;28;20238;-61
2022/01/19 07:41:10;;;;;;;14.83;9.37;;;3.30;99.90;;;;;;5033083;28;20210;-60
2022/01/19 07:43:37;;;;;;;13.77;8.97;;;3.30;99.90;;;;;;5032967;28;20321;-59
2022/01/19 07:46:04;;;;;;;13.30;8.80;;;3.20;99.90;;;;;;5033091;28;20297;-60
2022/01/19 07:48:31;;;;;;;13.27;9.00;;;3.20;99.90;;;;;;5032229;28;20248;-59
2022/01/19 07:50:58;;;;;;;15.93;9.33;;;3.20;99.90;;;;;;5032651;28;20220;-59
2022/01/19 07:53:24;;;;;;;14.40;9.13;;;3.30;99.90;;;;;;5032639;28;20231;-59
2022/01/19 07:55:53;;;;;;;12.20;8.97;;;3.20;99.90;;;;;;5032388;28;20627;-59
2022/01/19 07:58:20;;;;;;;12.40;8.93;;;3.20;99.90;;;;;;5032310;28;20209;-59
2022/01/19 08:00:47;;;;;;;12.67;9.47;;;3.30;99.90;;;;;;5032283;28;20210;-59
2022/01/19 08:03:14;;;;;;;12.80;8.17;;;3.30;99.90;;;;;;5032389;28;20238;-59
2022/01/19 08:05:41;;;;;;;18.17;10.40;;;3.40;99.90;;;;;;5032602;28;20225;-60
2022/01/19 08:08:07;;;;;;;14.03;9.47;;;3.50;99.90;;;;;;5031940;28;20674;-59
2022/01/19 08:10:34;;;;;;;14.87;10.87;;;3.50;99.90;;;;;;5032185;28;20729;-59
2022/01/19 08:13:04;;;;;;;15.27;9.33;;;3.60;99.90;;;;;;5032158;28;20238;-59
2022/01/19 08:15:31;;;;;;;15.60;11.10;;;3.70;99.90;;;;;;5031957;28;20593;-60
2022/01/19 08:17:58;;;;;;;16.03;9.90;;;3.70;99.90;;;;;;5032358;28;20206;-59
2022/01/19 08:20:25;;;;;;;12.07;8.60;;;3.80;99.90;;;;;;5032142;28;20206;-61
2022/01/19 08:22:52;;;;;;;14.03;9.70;;;3.80;99.90;;;;;;5031994;28;20230;-59
2022/01/19 08:25:19;;;;;;;13.47;9.13;;;3.90;99.90;;;;;;5032388;28;20202;-59
2022/01/19 08:27:46;;;;;;;11.93;8.50;;;4.00;99.90;;;;;;5032010;28;20305;-59
2022/01/19 08:30:15;;;;;;;13.00;9.00;;;4.00;99.90;;;;;;5031737;28;20755;-59
2022/01/19 08:32:42;;;;;;;13.70;9.57;;;4.10;99.90;;;;;;5032496;28;20226;-59
2022/01/19 08:35:10;;;;;;;12.00;8.60;;;4.00;99.90;;;;;;5032483;28;20214;-59
2022/01/19 08:37:37;;;;;;;12.73;8.80;;;4.10;99.90;;;;;;5032123;28;20221;-59
2022/01/19 08:40:05;;;;;;;13.33;8.90;;;4.10;99.90;;;;;;5031780;28;20202;-59
2022/01/19 08:42:33;;;;;;;14.07;8.73;;;4.10;99.90;;;;;;5031481;28;20226;-59
2022/01/19 08:45:04;;;;;;;15.67;9.87;;;4.10;99.90;;;;;;5032021;28;20206;-59
2022/01/19 08:47:33;;;;;;;14.20;8.43;;;4.20;99.90;;;;;;5031911;28;20206;-59
2022/01/19 08:49:59;;;;;;;13.60;8.57;;;4.30;99.90;;;;;;5031449;28;20226;-59
2022/01/19 08:52:26;;;;;;;9.87;8.17;;;4.40;99.90;;;;;;5031652;28;20230;-59
2022/01/19 08:54:53;;;;;;;14.30;9.30;;;4.50;99.90;;;;;;5031698;28;20264;-59
2022/01/19 08:57:19;;;;;;;11.03;9.17;;;4.60;99.90;;;;;;5031987;28;20577;-62
2022/01/19 08:59:46;;;;;;;14.77;9.23;;;4.60;99.90;;;;;;5031334;28;20670;-57
2022/01/19 09:02:13;;;;;;;11.20;8.50;;;4.60;99.90;;;;;;5031520;28;20787;-58
2022/01/19 09:04:41;;;;;;;13.30;9.07;;;4.60;99.90;;;;;;5031807;28;20619;-58
2022/01/19 09:07:07;;;;;;;12.07;7.87;;;4.60;99.90;;;;;;5031612;28;20215;-58
2022/01/19 09:09:34;;;;;;;12.83;8.30;;;4.70;99.90;;;;;;5031309;28;20272;-58
2022/01/19 09:12:01;;;;;;;12.07;8.20;;;4.90;99.90;;;;;;5031770;28;20625;-58
2022/01/19 09:14:30;;;;;;;14.20;8.77;;;5.20;99.90;;;;;;5031640;28;20202;-58
2022/01/19 09:16:57;;;;;;;9.43;8.13;;;5.40;99.90;;;;;;5031625;28;20210;-58
2022/01/19 09:19:23;;;;;;;16.10;11.70;;;5.50;99.90;;;;;;5031545;28;20224;-58
2022/01/19 09:21:52;;;;;;;11.97;8.37;;;5.70;99.90;;;;;;5031583;28;20248;-58
2022/01/19 09:24:19;;;;;;;13.27;8.47;;;5.70;99.90;;;;;;5031456;28;20553;-58
2022/01/19 09:26:46;;;;;;;13.67;8.07;;;5.80;99.90;;;;;;5031628;28;20256;-58
2022/01/19 09:29:12;;;;;;;15.87;11.40;;;5.90;99.90;;;;;;5031390;28;20222;-59
2022/01/19 09:31:41;;;;;;;14.03;8.30;;;5.70;99.90;;;;;;5031495;28;20206;-58
2022/01/19 09:34:10;;;;;;;14.47;8.63;;;5.80;99.90;;;;;;5032004;28;20289;-58
2022/01/19 09:36:44;;;;;;;10.73;8.03;;;5.90;99.90;;;;;;5035690;28;20214;-58
2022/01/19 09:39:13;;;;;;;13.50;8.93;;;5.90;99.90;;;;;;5035201;28;20202;-58
2022/01/19 09:41:41;;;;;;;13.77;9.10;;;6.00;99.90;;;;;;5035288;28;20260;-57
2022/01/19 09:44:08;;;;;;;14.70;9.50;;;6.10;99.90;;;;;;5034964;28;20258;-57
2022/01/19 09:46:35;;;;;;;14.00;9.07;;;6.20;99.90;;;;;;5034718;28;20210;-62
2022/01/19 09:49:02;;;;;;;13.33;8.97;;;6.30;99.90;;;;;;5034714;28;20590;-61
2022/01/19 09:51:29;;;;;;;14.77;9.10;;;6.30;99.90;;;;;;5035057;28;20616;-61
2022/01/19 09:53:56;;;;;;;12.57;8.97;;;6.40;99.90;;;;;;5034939;28;20253;-62
2022/01/19 09:56:24;;;;;;;12.83;9.03;;;6.60;99.90;;;;;;5034937;28;20214;-61
2022/01/19 09:58:51;;;;;;;14.27;8.83;;;6.60;99.90;;;;;;5034697;28;20257;-62
2022/01/19 10:01:19;;;;;;;12.83;9.13;;;6.60;99.90;;;;;;5034884;28;20210;-61
2022/01/19 10:03:47;;;;;;;13.43;8.67;;;6.70;99.90;;;;;;5034442;28;20237;-61
2022/01/19 10:06:17;;;;;;;12.68;9.05;;;6.80;99.90;;;;;;5033852;28;20445;-67
2022/01/19 10:08:45;;;;;;;11.83;8.87;;;6.80;99.90;;;;;;5012660;28;20207;-63
2022/01/19 10:11:16;;;;;;;13.10;9.37;;;6.80;99.90;;;;;;5014881;28;20214;-62
2022/01/19 10:19:20;;;;;;;12.93;9.70;;;6.90;99.90;;;;;;5014165;28;20276;-64
2022/01/19 10:21:58;;;;;;;15.57;8.80;;;6.90;99.90;;;;;;5014803;28;20293;-64
2022/01/19 10:24:46;;;;;;;15.87;8.63;;;6.90;99.90;;;;;;5015108;28;20213;-68
2022/01/19 10:27:35;;;;;;;11.87;8.43;;;7.10;99.90;;;;;;5014792;28;20309;-68
2022/01/19 10:30:21;;;;;;;11.40;7.57;;;7.20;99.90;;;;;;5014069;28;20231;-67
2022/01/19 10:32:51;;;;;;;12.30;8.77;;;7.20;99.90;;;;;;5014200;28;20226;-66
2022/01/19 10:35:22;;;;;;;10.80;8.13;;;7.20;99.90;;;;;;5014642;28;20270;-62
2022/01/19 10:38:06;;;;;;;12.57;7.90;;;7.30;99.90;;;;;;5014930;28;20238;-62
2022/01/19 10:40:34;;;;;;;10.33;6.87;;;7.40;99.90;;;;;;5014381;28;20254;-62
2022/01/19 10:43:21;;;;;;;10.13;7.67;;;7.40;99.90;;;;;;5014601;28;20223;-62
2022/01/19 10:45:49;;;;;;;9.33;6.53;;;7.40;99.90;;;;;;5014344;28;20210;-62
2022/01/19 10:48:31;;;;;;;7.93;6.50;;;7.40;99.90;;;;;;5014959;28;20269;-62
2022/01/19 10:51:07;;;;;;;10.10;6.67;;;7.40;99.90;;;;;;5014526;28;20231;-62
2022/01/19 10:53:34;;;;;;;8.00;6.47;;;7.50;99.90;;;;;;5014218;28;20310;-62
2022/01/19 10:56:02;;;;;;;10.30;6.80;;;7.60;99.90;;;;;;5014159;28;20230;-62
2022/01/19 10:58:29;;;;;;;8.03;6.23;;;7.60;99.90;;;;;;5014267;28;20207;-62
2022/01/19 11:00:57;;;;;;;9.47;6.83;;;7.30;99.90;;;;;;5014102;28;20207;-63
2022/01/19 11:03:26;;;;;;;9.73;6.70;;;7.00;99.90;;;;;;5014610;28;20288;-62
2022/01/19 11:05:55;;;;;;;9.40;7.17;;;6.70;99.90;;;;;;5014095;28;20293;-63
2022/01/19 11:08:23;;;;;;;13.00;7.60;;;6.50;99.90;;;;;;5014014;28;20249;-63
2022/01/19 11:10:53;;;;;;;8.43;6.50;;;6.30;99.90;;;;;;5014097;28;20226;-61
2022/01/19 11:13:28;;;;;;;12.13;7.33;;;6.20;99.90;;;;;;5013977;28;20241;-62
2022/01/19 11:15:57;;;;;;;10.43;7.83;;;6.20;99.90;;;;;;5013797;28;20203;-61
2022/01/19 11:18:26;;;;;;;10.40;7.23;;;6.30;99.90;;;;;;5013908;28;20683;-62
2022/01/19 11:20:54;;;;;;;10.20;7.77;;;6.50;99.90;;;;;;5013932;28;20217;-61
2022/01/19 11:23:31;;;;;;;10.50;7.37;;;6.90;99.90;;;;;;5013380;28;20229;-61
2022/01/19 11:26:01;;;;;;;11.33;7.43;;;7.20;99.90;;;;;;5013900;28;20206;-61
2022/01/19 11:28:37;;;;;;;12.63;8.23;;;7.10;99.90;;;;;;5012879;28;20207;-62
2022/01/19 11:31:08;;;;;;;10.47;7.60;;;6.90;99.90;;;;;;5013230;28;20226;-61
2022/01/19 11:33:42;;;;;;;12.65;8.60;;;6.90;99.90;;;;;;5012541;28;20864;-62
2022/01/19 11:36:20;;;;;;;13.50;8.23;;;7.10;99.90;;;;;;5032630;28;20209;-65
2022/01/19 11:38:48;;;;;;;10.60;7.93;;;7.10;99.90;;;;;;5032587;28;20252;-68
2022/01/19 11:41:41;;;;;;;9.33;7.33;;;7.10;99.90;;;;;;5032715;28;20206;-67
2022/01/19 11:44:11;;;;;;;12.73;8.00;;;7.00;99.90;;;;;;5032901;28;20234;-67
2022/01/19 11:46:43;;;;;;;10.87;8.13;;;6.80;99.90;;;;;;5032499;28;20590;-67
2022/01/19 11:49:12;;;;;;;11.17;8.10;;;6.70;99.90;;;;;;5032034;28;20292;-65
2022/01/19 11:51:40;;;;;;;10.83;8.43;;;6.70;99.90;;;;;;5032877;28;20214;-65
2022/01/19 11:54:19;;;;;;;16.37;9.20;;;6.70;99.90;;;;;;5032794;28;20234;-65
2022/01/19 11:57:10;;;;;;;11.07;8.50;;;6.70;99.90;;;;;;5032272;28;20647;-65
2022/01/19 12:00:05;;;;;;;13.07;8.73;;;6.70;99.90;;;;;;5024333;28;20671;-65
2022/01/19 12:02:38;;;;;;;13.80;8.77;;;6.70;99.90;;;;;;5032051;28;20241;-61
2022/01/19 12:05:24;;;;;;;12.57;8.97;;;6.70;99.90;;;;;;5032809;28;20210;-62
2022/01/19 12:07:53;;;;;;;11.33;8.43;;;6.70;99.90;;;;;;5032294;28;20260;-64
2022/01/19 12:10:22;;;;;;;14.47;9.80;;;6.50;99.90;;;;;;5032653;28;20234;-65
2022/01/19 12:13:28;;;;;;;13.70;9.27;;;6.30;99.90;;;;;;5031399;28;20226;-68
2022/01/19 12:15:59;;;;;;;16.80;9.43;;;6.30;99.90;;;;;;5032195;28;20210;-67
2022/01/19 12:18:43;;;;;;;14.63;9.77;;;6.30;99.90;;;;;;5032308;28;20206;-66
2022/01/19 12:21:12;;;;;;;13.93;9.40;;;6.40;99.90;;;;;;5031812;28;20210;-66
2022/01/19 12:23:40;;;;;;;10.80;8.07;;;6.40;99.90;;;;;;5031681;28;20312;-67
2022/01/19 12:26:08;;;;;;;10.23;7.40;;;6.30;99.90;;;;;;5031972;28;20645;-66
2022/01/19 12:28:43;;;;;;;9.00;7.07;;;6.30;99.90;;;;;;5032071;28;20300;-67
2022/01/19 12:31:31;;;;;;;12.23;7.10;;;6.30;99.90;;;;;;5031755;28;20226;-67
2022/01/19 12:34:20;;;;;;;11.90;7.57;;;6.40;99.90;;;;;;5031699;28;20237;-67
2022/01/19 12:36:51;;;;;;;10.33;7.00;;;6.40;99.90;;;;;;5032282;28;20206;-68
2022/01/19 12:39:36;;;;;;;11.33;7.03;;;6.40;99.90;;;;;;5031571;28;20245;-67
2022/01/19 12:42:05;;;;;;;11.77;7.67;;;6.50;99.90;;;;;;5030979;28;20214;-66
2022/01/19 12:44:40;;;;;;;10.03;6.80;;;6.80;99.90;;;;;;5031659;28;20210;-65
2022/01/19 12:47:45;;;;;;;11.27;7.10;;;7.20;99.90;;;;;;5031869;28;20309;-66
2022/01/19 12:50:48;;;;;;;9.80;7.43;;;7.60;99.90;;;;;;5031170;28;20222;-68
2022/01/19 12:53:21;;;;;;;13.93;7.20;;;7.80;99.90;;;;;;5031219;28;20713;-64
2022/01/19 12:55:51;;;;;;;9.43;7.40;;;8.00;99.90;;;;;;5032048;28;20245;-68
2022/01/19 12:58:22;;;;;;;10.07;7.27;;;8.00;99.90;;;;;;5031494;28;20283;-67
2022/01/19 13:00:52;;;;;;;10.00;6.90;;;7.80;99.90;;;;;;5031123;28;20209;-69
2022/01/19 13:03:23;;;;;;;9.70;7.00;;;8.10;99.90;;;;;;5031401;28;20238;-69
2022/01/19 13:05:54;;;;;;;13.03;7.47;;;8.30;99.90;;;;;;5031464;28;20206;-68
2022/01/19 13:08:28;;;;;;;13.33;7.07;;;8.40;99.90;;;;;;5031157;28;20210;-66
2022/01/19 13:11:02;;;;;;;10.03;7.60;;;8.60;99.90;;;;;;5034895;28;20229;-67
2022/01/19 13:13:29;;;;;;;15.30;7.73;;;8.80;99.90;;;;;;5035254;28;20225;-68
2022/01/19 13:15:57;;;;;;;14.00;8.73;;;9.10;99.90;;;;;;5035670;28;20206;-69
2022/01/19 13:18:33;;;;;;;11.47;7.50;;;9.30;99.90;;;;;;5035483;28;20214;-66
2022/01/19 13:21:03;;;;;;;9.40;6.87;;;9.60;99.90;;;;;;5034385;28;20243;-65
2022/01/19 13:23:31;;;;;;;10.27;7.60;;;9.70;99.90;;;;;;5035433;28;20316;-63
2022/01/19 13:26:00;;;;;;;13.37;6.50;;;9.70;99.90;;;;;;5035410;28;20214;-69
2022/01/19 13:28:30;;;;;;;8.20;6.67;;;9.70;99.90;;;;;;5035108;28;20756;-66
2022/01/19 13:30:58;;;;;;;8.13;7.00;;;9.70;99.90;;;;;;5033879;28;20648;-62
2022/01/19 13:33:26;;;;;;;10.93;6.20;;;9.80;99.90;;;;;;5034805;28;20229;-65
2022/01/19 13:36:01;;;;;;;9.90;7.40;;;9.80;99.90;;;;;;5034308;28;20756;-62
2022/01/19 13:38:28;;;;;;;9.53;6.67;;;9.90;99.90;;;;;;5034844;28;20217;-61
2022/01/19 13:41:04;;;;;;;11.00;6.93;;;10.10;99.90;;;;;;5035140;28;20207;-61
2022/01/19 13:43:34;;;;;;;7.90;6.10;;;10.10;99.90;;;;;;5035522;28;20229;-62
2022/01/19 13:46:12;;;;;;;10.30;6.63;;;10.20;99.90;;;;;;5034050;28;20689;-62
2022/01/19 13:48:40;;;;;;;10.40;6.70;;;10.30;99.90;;;;;;5034453;28;20206;-62
2022/01/19 13:51:10;;;;;;;13.97;7.13;;;10.30;99.90;;;;;;5034328;28;20701;-64
2022/01/19 13:53:40;;;;;;;12.90;7.37;;;10.50;99.90;;;;;;5034818;28;20229;-62
2022/01/19 13:56:09;;;;;;;8.97;6.30;;;10.60;99.90;;;;;;5034661;28;20252;-62
2022/01/19 13:58:39;;;;;;;7.63;5.53;;;10.60;99.90;;;;;;5034400;28;20225;-62
2022/01/19 14:01:11;;;;;;;6.07;4.90;;;10.60;99.90;;;;;;5034608;28;20210;-70
2022/01/19 14:03:46;;;;;;;6.47;5.27;;;10.50;99.90;;;;;;5034036;28;20266;-62
2022/01/19 14:06:25;;;;;;;8.67;5.27;;;10.50;99.90;;;;;;5034367;28;20213;-62
2022/01/19 14:09:08;;;;;;;7.57;4.90;;;10.40;99.90;;;;;;5034006;28;20595;-62
2022/01/19 14:11:36;;;;;;;8.20;5.97;;;10.30;99.90;;;;;;5034609;28;20288;-67
2022/01/19 14:14:04;;;;;;;6.57;4.63;;;10.00;99.90;;;;;;5033524;28;20227;-66
2022/01/19 14:16:35;;;;;;;8.53;6.27;;;9.90;99.90;;;;;;5037059;28;20218;-65
2022/01/19 14:19:17;;;;;;;6.00;4.60;;;9.80;99.90;;;;;;5038273;28;20256;-63
2022/01/19 14:22:01;;;;;;;6.80;5.30;;;9.70;99.90;;;;;;5035150;28;20618;-63